createdAt,value
2023-05-05T00:00:22.910Z,97823.41
2023-05-05T00:02:49.589Z,97829.41
2023-05-05T00:05:16.338Z,97821.91
2023-05-05T00:07:42.906Z,97822.78
2023-05-05T00:10:09.680Z,97822.69
2023-05-05T00:12:36.553Z,97820.53
2023-05-05T00:15:03.168Z,97818.84
2023-05-05T00:17:29.770Z,97818.19
2023-05-05T00:19:56.451Z,97813.06
2023-05-05T00:22:23.037Z,97813.69
2023-05-05T00:24:49.593Z,97815.31
2023-05-05T00:27:16.181Z,97816.56
2023-05-05T00:29:42.783Z,97811.91
2023-05-05T00:32:09.383Z,97803.34
2023-05-05T00:34:35.961Z,97798.34
2023-05-05T00:37:02.571Z,97801.28
2023-05-05T00:39:29.140Z,97796.41
2023-05-05T00:41:55.751Z,97796.63
2023-05-05T00:44:22.351Z,97791.72
2023-05-05T00:46:49.321Z,97796.13
2023-05-05T00:49:16.082Z,97794.53
2023-05-05T00:51:42.731Z,97793.78
2023-05-05T00:54:09.311Z,97786.72
2023-05-05T00:56:35.970Z,97783.22
2023-05-05T00:59:02.622Z,97781.47
2023-05-05T01:01:29.244Z,97774.50
2023-05-05T01:03:56.179Z,97780.69
2023-05-05T01:06:22.811Z,97769.34
2023-05-05T01:08:49.516Z,97767.69
2023-05-05T01:11:16.139Z,97768.41
2023-05-05T01:13:42.796Z,97764.13
2023-05-05T01:16:09.540Z,97768.75
2023-05-05T01:18:36.133Z,97762.41
2023-05-05T01:21:02.711Z,97762.69
2023-05-05T01:23:29.372Z,97762.50
2023-05-05T01:25:56.038Z,97759.44
2023-05-05T01:28:22.614Z,97759.97
2023-05-05T01:30:49.352Z,97756.50
2023-05-05T01:33:15.934Z,97755.03
2023-05-05T01:35:42.679Z,97765.41
2023-05-05T01:38:09.255Z,97755.47
2023-05-05T01:40:35.892Z,97757.22
2023-05-05T01:43:02.463Z,97750.75
2023-05-05T01:45:29.141Z,97753.97
2023-05-05T01:47:55.832Z,97751.59
2023-05-05T01:50:22.434Z,97747.97
2023-05-05T01:52:49.084Z,97750.25
2023-05-05T01:55:15.680Z,97749.03
2023-05-05T01:57:42.254Z,97740.88
2023-05-05T02:00:09.130Z,97747.59
2023-05-05T02:02:36.053Z,97739.47
2023-05-05T02:05:02.665Z,97739.25
2023-05-05T02:07:29.254Z,97740.50
2023-05-05T02:09:55.776Z,97736.38
2023-05-05T02:12:22.390Z,97737.41
2023-05-05T02:14:49.019Z,97734.81
2023-05-05T02:17:15.672Z,97731.38
2023-05-05T02:19:42.254Z,97726.19
2023-05-05T02:22:08.944Z,97727.78
2023-05-05T02:24:35.501Z,97730.94
2023-05-05T02:27:02.109Z,97735.88
2023-05-05T02:29:28.674Z,97726.00
2023-05-05T02:31:55.350Z,97728.59
2023-05-05T02:34:21.921Z,97727.44
2023-05-05T02:36:50.858Z,97725.97
2023-05-05T02:39:17.482Z,97733.28
2023-05-05T02:41:44.050Z,97730.66
2023-05-05T02:44:10.686Z,97729.97
2023-05-05T02:46:37.285Z,97732.78
2023-05-05T02:49:03.942Z,97724.44
2023-05-05T02:51:30.530Z,97726.22
2023-05-05T02:53:57.115Z,97723.03
2023-05-05T02:56:23.764Z,97728.00
2023-05-05T02:58:50.326Z,97718.31
2023-05-05T03:01:17.086Z,97726.00
2023-05-05T03:03:43.774Z,97722.72
2023-05-05T03:06:10.417Z,97722.22
2023-05-05T03:08:37.009Z,97727.88
2023-05-05T03:11:03.575Z,97718.00
2023-05-05T03:13:30.250Z,97718.03
2023-05-05T03:15:56.836Z,97717.34
2023-05-05T03:18:23.410Z,97717.66
2023-05-05T03:20:50.024Z,97715.63
2023-05-05T03:23:16.662Z,97714.84
2023-05-05T03:25:43.264Z,97715.53
2023-05-05T03:28:09.845Z,97713.97
2023-05-05T03:30:36.436Z,97722.09
2023-05-05T03:33:03.011Z,97716.28
2023-05-05T03:35:29.648Z,97722.25
2023-05-05T03:37:56.206Z,97716.34
2023-05-05T03:40:32.643Z,97711.72
2023-05-05T03:43:07.333Z,97717.72
2023-05-05T03:45:33.976Z,97715.53
2023-05-05T03:48:00.585Z,97704.78
2023-05-05T03:50:27.203Z,97708.69
2023-05-05T03:52:53.791Z,97710.97
2023-05-05T03:55:20.367Z,97709.56
2023-05-05T03:57:47.055Z,97722.63
2023-05-05T04:00:13.622Z,97717.47
2023-05-05T04:02:40.273Z,97717.91
2023-05-05T04:05:06.884Z,97719.78
2023-05-05T04:07:33.489Z,97715.56
2023-05-05T04:10:00.055Z,97724.41
2023-05-05T04:12:26.654Z,97726.31
2023-05-05T04:14:53.252Z,97715.97
2023-05-05T04:17:19.819Z,97722.19
2023-05-05T04:19:46.433Z,97717.84
2023-05-05T04:22:13.043Z,97719.75
2023-05-05T04:24:39.614Z,97723.13
2023-05-05T04:27:06.210Z,97727.63
2023-05-05T04:29:32.754Z,97718.00
2023-05-05T04:31:59.317Z,97735.63
2023-05-05T04:34:25.920Z,97725.41
2023-05-05T04:36:52.637Z,97724.94
2023-05-05T04:39:19.282Z,97721.91
2023-05-05T04:41:45.860Z,97719.25
2023-05-05T04:44:12.455Z,97730.44
2023-05-05T04:46:39.056Z,97723.25
2023-05-05T04:49:05.689Z,97733.41
2023-05-05T04:51:32.259Z,97736.81
2023-05-05T04:53:58.835Z,97734.84
2023-05-05T04:56:28.274Z,97743.06
2023-05-05T04:58:55.037Z,97732.28
2023-05-05T05:01:21.601Z,97739.28
2023-05-05T05:03:48.309Z,97740.56
2023-05-05T05:06:14.980Z,97733.84
2023-05-05T05:08:41.551Z,97735.63
2023-05-05T05:11:08.186Z,97737.84
2023-05-05T05:13:34.778Z,97728.00
2023-05-05T05:16:01.620Z,97737.72
2023-05-05T05:18:28.260Z,97741.72
2023-05-05T05:20:54.825Z,97740.41
2023-05-05T05:23:21.548Z,97737.88
2023-05-05T05:25:48.149Z,97732.44
2023-05-05T05:28:14.865Z,97727.53
2023-05-05T05:30:41.405Z,97734.81
2023-05-05T05:33:08.020Z,97736.69
2023-05-05T05:35:34.604Z,97727.44
2023-05-05T05:38:01.218Z,97725.44
2023-05-05T05:40:27.804Z,97729.66
2023-05-05T05:42:54.451Z,97734.09
2023-05-05T05:45:21.101Z,97732.50
2023-05-05T05:47:47.723Z,97720.03
2023-05-05T05:50:14.349Z,97728.84
2023-05-05T05:52:40.909Z,97721.31
2023-05-05T05:55:07.511Z,97719.38
2023-05-05T05:57:34.125Z,97715.19
2023-05-05T06:00:02.015Z,97715.91
2023-05-05T06:02:29.166Z,97718.81
2023-05-05T06:04:55.830Z,97717.28
2023-05-05T06:07:22.615Z,97709.41
2023-05-05T06:09:49.182Z,97717.09
2023-05-05T06:12:15.809Z,97721.25
2023-05-05T06:14:42.394Z,97725.63
2023-05-05T06:17:09.053Z,97718.56
2023-05-05T06:19:35.700Z,97714.97
2023-05-05T06:22:02.305Z,97707.56
2023-05-05T06:24:28.900Z,97715.00
2023-05-05T06:26:55.484Z,97713.91
2023-05-05T06:29:22.318Z,97714.44
2023-05-05T06:31:48.974Z,97703.94
2023-05-05T06:34:15.629Z,97710.22
2023-05-05T06:36:42.236Z,97712.13
2023-05-05T06:39:08.833Z,97710.53
2023-05-05T06:41:35.393Z,97709.94
2023-05-05T06:44:02.165Z,97704.50
2023-05-05T06:46:28.933Z,97701.31
2023-05-05T06:48:55.702Z,97703.34
2023-05-05T06:51:22.321Z,97698.53
2023-05-05T06:53:48.885Z,97702.47
2023-05-05T06:56:15.500Z,97699.91
2023-05-05T06:58:42.088Z,97699.41
2023-05-05T07:01:08.733Z,97700.34
2023-05-05T07:03:35.439Z,97690.00
2023-05-05T07:06:02.135Z,97695.50
2023-05-05T07:08:28.768Z,97695.19
2023-05-05T07:10:55.366Z,97692.56
2023-05-05T07:13:21.997Z,97691.47
2023-05-05T07:15:48.575Z,97697.78
2023-05-05T07:18:15.166Z,97685.69
2023-05-05T07:20:41.763Z,97692.44
2023-05-05T07:23:08.348Z,97686.34
2023-05-05T07:25:34.940Z,97689.25
2023-05-05T07:28:01.542Z,97682.72
2023-05-05T07:30:28.354Z,97681.56
2023-05-05T07:32:55.462Z,97672.56
2023-05-05T07:35:22.183Z,97675.97
2023-05-05T07:37:48.777Z,97667.31
2023-05-05T07:40:15.398Z,97668.13
2023-05-05T07:42:41.990Z,97666.81
2023-05-05T07:45:08.606Z,97665.09
2023-05-05T07:47:35.288Z,97656.50
2023-05-05T07:50:02.275Z,97656.59
2023-05-05T07:52:44.234Z,97657.66
2023-05-05T07:55:14.728Z,97661.00
2023-05-05T07:57:41.311Z,97658.38
2023-05-05T08:00:08.159Z,97661.25
2023-05-05T08:02:37.210Z,97656.25
2023-05-05T08:05:03.869Z,97656.84
2023-05-05T08:07:30.463Z,97653.72
2023-05-05T08:09:57.093Z,97647.72
2023-05-05T08:12:23.690Z,97656.25
2023-05-05T08:14:50.290Z,97650.44
2023-05-05T08:17:19.947Z,97653.69
2023-05-05T08:19:46.526Z,97649.09
2023-05-05T08:22:13.319Z,97652.72
2023-05-05T08:24:39.979Z,97653.09
2023-05-05T08:27:08.875Z,97645.53
2023-05-05T08:29:35.500Z,97646.66
2023-05-05T08:32:02.152Z,97652.03
2023-05-05T08:34:28.710Z,97641.88
2023-05-05T08:36:55.319Z,97639.75
2023-05-05T08:39:22.093Z,97645.81
2023-05-05T08:41:48.669Z,97636.84
2023-05-05T08:44:15.274Z,97641.44
2023-05-05T08:46:41.890Z,97635.47
2023-05-05T08:49:08.533Z,97643.59
2023-05-05T08:51:35.113Z,97643.50
2023-05-05T08:54:01.762Z,97639.22
2023-05-05T08:56:28.361Z,97644.31
2023-05-05T08:58:54.983Z,97644.84
2023-05-05T09:01:21.588Z,97635.44
2023-05-05T09:03:48.225Z,97633.59
2023-05-05T09:06:14.812Z,97629.13
2023-05-05T09:08:41.405Z,97636.13
2023-05-05T09:11:08.333Z,97635.16
2023-05-05T09:13:34.944Z,97632.22
2023-05-05T09:16:01.696Z,97621.34
2023-05-05T09:18:28.364Z,97624.56
2023-05-05T09:20:55.460Z,97619.44
2023-05-05T09:23:23.037Z,97612.09
2023-05-05T09:25:49.640Z,97618.78
2023-05-05T09:28:16.232Z,97615.78
2023-05-05T09:30:42.937Z,97611.81
2023-05-05T09:33:09.650Z,97606.00
2023-05-05T09:35:36.258Z,97609.13
2023-05-05T09:38:02.929Z,97608.16
2023-05-05T09:40:29.497Z,97607.38
2023-05-05T09:42:56.096Z,97612.03
2023-05-05T09:45:22.728Z,97611.91
2023-05-05T09:47:49.431Z,97613.31
2023-05-05T09:50:16.289Z,97613.53
2023-05-05T09:52:42.964Z,97610.91
2023-05-05T09:55:09.587Z,97613.31
2023-05-05T09:57:36.149Z,97616.53
2023-05-05T10:00:02.887Z,97615.00
2023-05-05T10:02:29.550Z,97610.16
2023-05-05T10:04:56.371Z,97602.78
2023-05-05T10:07:22.943Z,97609.97
2023-05-05T10:09:49.598Z,97611.03
2023-05-05T10:12:16.199Z,97610.84
2023-05-05T10:14:42.853Z,97609.59
2023-05-05T10:17:09.489Z,97601.66
2023-05-05T10:19:36.086Z,97598.44
2023-05-05T10:22:02.661Z,97592.78
2023-05-05T10:24:29.336Z,97591.22
2023-05-05T10:26:55.972Z,97590.91
2023-05-05T10:29:22.562Z,97584.16
2023-05-05T10:31:49.223Z,97581.66
2023-05-05T10:34:15.945Z,97584.56
2023-05-05T10:36:42.686Z,97583.88
2023-05-05T10:39:09.285Z,97582.97
2023-05-05T10:41:35.866Z,97577.03
2023-05-05T10:44:04.416Z,97570.44
2023-05-05T10:46:31.420Z,97568.22
2023-05-05T10:48:58.212Z,97554.16
2023-05-05T10:51:38.725Z,97553.50
2023-05-05T10:54:06.518Z,97551.81
2023-05-05T10:56:33.154Z,97557.03
2023-05-05T10:59:00.780Z,97547.38
2023-05-05T11:01:27.711Z,97537.63
2023-05-05T11:03:54.358Z,97549.63
2023-05-05T11:06:20.970Z,97534.94
2023-05-05T11:08:47.577Z,97535.88
2023-05-05T11:11:14.318Z,97533.53
2023-05-05T11:13:44.062Z,97540.03
2023-05-05T11:16:12.819Z,97544.47
2023-05-05T11:18:39.597Z,97536.88
2023-05-05T11:21:06.204Z,97536.00
2023-05-05T11:23:32.844Z,97539.94
2023-05-05T11:26:00.278Z,97528.47
2023-05-05T11:28:26.847Z,97531.91
2023-05-05T11:30:53.588Z,97527.19
2023-05-05T11:33:20.224Z,97516.22
2023-05-05T11:35:46.833Z,97521.03
2023-05-05T11:38:13.423Z,97509.28
2023-05-05T11:40:40.207Z,97513.84
2023-05-05T11:43:06.815Z,97511.28
2023-05-05T11:45:34.281Z,97510.81
2023-05-05T11:48:00.951Z,97500.31
2023-05-05T11:50:27.636Z,97508.50
2023-05-05T11:52:54.235Z,97501.91
2023-05-05T11:55:20.909Z,97500.13
2023-05-05T11:57:47.497Z,97498.59
2023-05-05T12:00:14.092Z,97500.25
2023-05-05T12:02:40.771Z,97499.75
2023-05-05T12:05:07.432Z,97501.31
2023-05-05T12:07:34.027Z,97493.66
2023-05-05T12:10:00.660Z,97495.28
2023-05-05T12:12:27.342Z,97501.44
2023-05-05T12:14:53.977Z,97498.38
2023-05-05T12:17:20.578Z,97495.63
2023-05-05T12:19:47.193Z,97498.97
2023-05-05T12:22:14.102Z,97492.41
2023-05-05T12:24:40.702Z,97487.53
2023-05-05T12:27:07.276Z,97492.44
2023-05-05T12:29:33.902Z,97488.44
2023-05-05T12:32:00.666Z,97483.28
2023-05-05T12:34:27.501Z,97482.84
2023-05-05T12:36:54.154Z,97482.53
2023-05-05T12:39:20.805Z,97478.50
2023-05-05T12:41:47.435Z,97488.50
2023-05-05T12:44:14.179Z,97478.50
2023-05-05T12:46:40.935Z,97472.72
2023-05-05T12:49:07.575Z,97470.44
2023-05-05T12:51:34.212Z,97469.59
2023-05-05T12:54:02.904Z,97465.06
2023-05-05T12:56:29.720Z,97463.09
2023-05-05T12:58:56.303Z,97458.19
2023-05-05T13:01:22.930Z,97450.56
2023-05-05T13:03:49.499Z,97452.03
2023-05-05T13:06:16.096Z,97446.94
2023-05-05T13:08:42.747Z,97436.91
2023-05-05T13:11:09.341Z,97449.66
2023-05-05T13:13:35.920Z,97446.78
2023-05-05T13:16:02.584Z,97439.16
2023-05-05T13:18:29.193Z,97440.88
2023-05-05T13:20:55.843Z,97438.31
2023-05-05T13:23:23.747Z,97430.34
2023-05-05T13:25:51.945Z,97436.16
2023-05-05T13:28:18.797Z,97429.34
2023-05-05T13:30:45.494Z,97429.97
2023-05-05T13:33:12.225Z,97422.28
2023-05-05T13:35:38.831Z,97418.41
2023-05-05T13:38:05.416Z,97418.91
2023-05-05T13:40:31.984Z,97415.69
2023-05-05T13:42:58.687Z,97412.31
2023-05-05T13:45:25.255Z,97405.69
2023-05-05T13:47:51.981Z,97401.16
2023-05-05T13:50:18.637Z,97397.56
2023-05-05T13:52:45.271Z,97394.41
2023-05-05T13:55:12.042Z,97392.53
2023-05-05T13:57:38.642Z,97394.75
2023-05-05T14:00:05.269Z,97389.59
2023-05-05T14:02:31.885Z,97381.34
2023-05-05T14:04:58.468Z,97389.50
2023-05-05T14:07:25.104Z,97389.41
2023-05-05T14:09:51.674Z,97387.84
2023-05-05T14:12:18.276Z,97378.19
2023-05-05T14:14:44.831Z,97386.38
2023-05-05T14:17:11.425Z,97377.06
2023-05-05T14:19:38.065Z,97386.59
2023-05-05T14:22:04.672Z,97380.59
2023-05-05T14:24:31.344Z,97371.41
2023-05-05T14:26:57.947Z,97371.28
2023-05-05T14:29:24.515Z,97376.78
2023-05-05T14:31:51.180Z,97391.88
2023-05-05T14:34:17.769Z,97386.81
2023-05-05T14:36:44.500Z,97372.06
2023-05-05T14:39:11.071Z,97378.63
2023-05-05T14:41:37.713Z,97374.03
2023-05-05T14:44:04.428Z,97375.81
2023-05-05T14:46:31.343Z,97375.72
2023-05-05T14:48:58.225Z,97373.66
2023-05-05T14:51:24.851Z,97364.84
2023-05-05T14:53:51.462Z,97367.13
2023-05-05T14:56:18.090Z,97365.88
2023-05-05T14:58:44.686Z,97357.25
2023-05-05T15:01:11.353Z,97368.91
2023-05-05T15:03:38.094Z,97369.09
2023-05-05T15:06:05.147Z,97368.28
2023-05-05T15:08:31.724Z,97362.19
2023-05-05T15:10:58.283Z,97365.34
2023-05-05T15:13:24.867Z,97372.78
2023-05-05T15:15:51.468Z,97371.06
2023-05-05T15:18:18.118Z,97372.84
2023-05-05T15:20:44.729Z,97367.53
2023-05-05T15:23:11.359Z,97374.63
2023-05-05T15:25:37.931Z,97369.84
2023-05-05T15:28:04.533Z,97365.38
2023-05-05T15:30:31.239Z,97376.56
2023-05-05T15:32:57.850Z,97375.56
2023-05-05T15:35:24.515Z,97369.22
2023-05-05T15:37:51.142Z,97365.13
2023-05-05T15:40:17.715Z,97368.03
2023-05-05T15:42:44.304Z,97367.03
2023-05-05T15:45:11.006Z,97373.78
2023-05-05T15:47:37.860Z,97363.25
2023-05-05T15:50:04.506Z,97359.56
2023-05-05T15:52:31.514Z,97359.88
2023-05-05T15:54:58.146Z,97352.78
2023-05-05T15:57:24.733Z,97361.03
2023-05-05T15:59:51.422Z,97358.50
2023-05-05T16:02:18.115Z,97350.84
2023-05-05T16:04:44.985Z,97355.34
2023-05-05T16:07:11.603Z,97345.63
2023-05-05T16:09:38.248Z,97348.44
2023-05-05T16:12:04.839Z,97354.00
2023-05-05T16:14:31.439Z,97349.91
2023-05-05T16:16:58.231Z,97348.63
2023-05-05T16:19:25.016Z,97347.38
2023-05-05T16:21:51.836Z,97347.41
2023-05-05T16:24:18.389Z,97349.56
2023-05-05T16:26:45.006Z,97343.56
2023-05-05T16:29:11.589Z,97343.41
2023-05-05T16:31:38.260Z,97339.59
2023-05-05T16:34:04.882Z,97349.31
2023-05-05T16:36:31.803Z,97345.38
2023-05-05T16:38:58.392Z,97335.38
2023-05-05T16:41:25.054Z,97346.44
2023-05-05T16:43:51.710Z,97343.56
2023-05-05T16:46:18.409Z,97345.66
2023-05-05T16:48:45.074Z,97343.84
2023-05-05T16:51:11.702Z,97344.56
2023-05-05T16:53:38.310Z,97336.38
2023-05-05T16:56:04.888Z,97353.84
2023-05-05T16:58:31.476Z,97346.09
2023-05-05T17:00:58.060Z,97349.72
2023-05-05T17:03:24.757Z,97351.22
2023-05-05T17:05:51.396Z,97351.28
2023-05-05T17:08:18.026Z,97351.56
2023-05-05T17:10:44.592Z,97360.97
2023-05-05T17:13:11.229Z,97363.81
2023-05-05T17:15:37.833Z,97373.44
2023-05-05T17:18:04.433Z,97362.84
2023-05-05T17:20:31.130Z,97368.03
2023-05-05T17:22:57.779Z,97368.28
2023-05-05T17:25:24.354Z,97375.81
2023-05-05T17:27:50.937Z,97372.81
2023-05-05T17:30:17.516Z,97378.03
2023-05-05T17:32:44.246Z,97382.84
2023-05-05T17:35:11.045Z,97379.63
2023-05-05T17:37:37.824Z,97382.06
2023-05-05T17:40:04.441Z,97390.97
2023-05-05T17:42:31.019Z,97382.19
2023-05-05T17:44:57.706Z,97388.78
2023-05-05T17:47:24.362Z,97394.13
2023-05-05T17:49:50.964Z,97392.16
2023-05-05T17:52:17.645Z,97388.06
2023-05-05T17:54:44.396Z,97392.47
2023-05-05T17:57:10.959Z,97394.69
2023-05-05T17:59:37.613Z,97398.00
2023-05-05T18:02:04.228Z,97400.06
2023-05-05T18:04:30.870Z,97398.97
2023-05-05T18:06:57.519Z,97407.94
2023-05-05T18:09:24.138Z,97405.25
2023-05-05T18:11:50.752Z,97412.22
2023-05-05T18:14:19.901Z,97407.66
2023-05-05T18:16:46.714Z,97407.34
2023-05-05T18:19:13.445Z,97406.06
2023-05-05T18:21:40.157Z,97412.22
2023-05-05T18:24:18.619Z,97411.06
2023-05-05T18:26:46.526Z,97416.84
2023-05-05T18:29:13.107Z,97418.19
2023-05-05T18:31:39.729Z,97414.09
2023-05-05T18:34:06.346Z,97411.66
2023-05-05T18:36:32.897Z,97422.91
2023-05-05T18:38:59.491Z,97432.91
2023-05-05T18:41:26.058Z,97432.91
2023-05-05T18:43:52.649Z,97435.34
2023-05-05T18:46:19.274Z,97443.66
2023-05-05T18:48:45.855Z,97441.22
2023-05-05T18:51:12.433Z,97450.13
2023-05-05T18:53:39.022Z,97450.88
2023-05-05T18:56:05.629Z,97456.78
2023-05-05T18:58:32.219Z,97454.91
2023-05-05T19:00:58.807Z,97457.31
2023-05-05T19:03:25.412Z,97467.50
2023-05-05T19:05:51.970Z,97470.38
2023-05-05T19:08:18.664Z,97475.19
2023-05-05T19:10:45.326Z,97469.22
2023-05-05T19:13:12.282Z,97470.78
2023-05-05T19:15:38.924Z,97470.50
2023-05-05T19:18:05.880Z,97475.34
2023-05-05T19:20:32.483Z,97474.56
2023-05-05T19:22:59.064Z,97483.06
2023-05-05T19:25:25.703Z,97482.19
2023-05-05T19:27:52.388Z,97482.19
2023-05-05T19:30:19.006Z,97482.94
2023-05-05T19:32:45.599Z,97485.81
2023-05-05T19:35:12.412Z,97478.25
2023-05-05T19:37:39.288Z,97488.41
2023-05-05T19:40:05.904Z,97483.94
2023-05-05T19:42:32.584Z,97484.44
2023-05-05T19:44:59.166Z,97487.66
2023-05-05T19:47:25.770Z,97489.97
2023-05-05T19:49:52.361Z,97484.53
2023-05-05T19:52:18.997Z,97486.13
2023-05-05T19:54:45.570Z,97483.34
2023-05-05T19:57:12.233Z,97484.09
2023-05-05T19:59:38.956Z,97475.75
2023-05-05T20:02:12.770Z,97481.13
2023-05-05T20:04:39.546Z,97476.34
2023-05-05T20:07:06.211Z,97478.03
2023-05-05T20:09:32.880Z,97474.06
2023-05-05T20:11:59.591Z,97474.25
2023-05-05T20:14:26.304Z,97478.59
2023-05-05T20:16:52.953Z,97482.88
2023-05-05T20:19:19.657Z,97477.69
2023-05-05T20:21:46.348Z,97475.81
2023-05-05T20:24:13.024Z,97480.06
2023-05-05T20:26:39.717Z,97482.47
2023-05-05T20:29:06.408Z,97475.66
2023-05-05T20:31:33.068Z,97478.56
2023-05-05T20:33:59.807Z,97477.88
2023-05-05T20:36:26.549Z,97476.56
2023-05-05T20:38:53.389Z,97484.88
2023-05-05T20:41:20.091Z,97479.25
2023-05-05T20:43:46.742Z,97481.72
2023-05-05T20:46:13.547Z,97486.41
2023-05-05T20:48:42.468Z,97491.28
2023-05-05T20:51:09.811Z,97479.38
2023-05-05T20:53:36.474Z,97483.66
2023-05-05T20:56:03.812Z,97489.66
2023-05-05T20:58:31.405Z,97499.19
2023-05-05T21:00:58.122Z,97498.97
2023-05-05T21:03:24.950Z,97498.63
2023-05-05T21:05:51.659Z,97499.50
2023-05-05T21:08:18.410Z,97503.31
2023-05-05T21:10:45.092Z,97491.34
2023-05-05T21:13:11.831Z,97495.22
2023-05-05T21:15:38.529Z,97497.97
2023-05-05T21:18:05.258Z,97496.53
2023-05-05T21:20:32.130Z,97498.22
2023-05-05T21:22:58.786Z,97492.31
2023-05-05T21:25:25.502Z,97484.53
2023-05-05T21:27:52.181Z,97481.34
2023-05-05T21:30:18.926Z,97475.38
2023-05-05T21:32:45.704Z,97472.91
2023-05-05T21:35:12.453Z,97483.00
2023-05-05T21:37:39.340Z,97483.81
2023-05-05T21:40:12.377Z,97483.72
2023-05-05T21:42:39.344Z,97492.31
2023-05-05T21:45:06.548Z,97489.09
2023-05-05T21:47:34.880Z,97494.84
2023-05-05T21:50:01.462Z,97492.69
2023-05-05T21:52:28.052Z,97489.16
2023-05-05T21:54:54.667Z,97494.19
2023-05-05T21:57:21.635Z,97488.47
2023-05-05T21:59:48.235Z,97486.97
2023-05-05T22:02:14.800Z,97482.09
2023-05-05T22:04:41.434Z,97485.16
2023-05-05T22:07:08.038Z,97482.28
2023-05-05T22:09:34.624Z,97490.34
2023-05-05T22:12:01.207Z,97480.59
2023-05-05T22:14:27.796Z,97480.34
2023-05-05T22:16:54.459Z,97476.88
2023-05-05T22:19:21.154Z,97477.94
2023-05-05T22:21:47.767Z,97470.63
2023-05-05T22:24:14.369Z,97468.31
2023-05-05T22:26:40.962Z,97465.56
2023-05-05T22:29:07.666Z,97463.28
2023-05-05T22:31:34.246Z,97468.50
2023-05-05T22:34:00.860Z,97474.28
2023-05-05T22:36:27.538Z,97457.00
2023-05-05T22:38:54.127Z,97452.59
2023-05-05T22:41:21.437Z,97454.19
2023-05-05T22:43:47.998Z,97450.94
2023-05-05T22:46:14.914Z,97450.34
2023-05-05T22:48:41.515Z,97447.22
2023-05-05T22:51:09.118Z,97453.91
2023-05-05T22:53:35.786Z,97455.88
2023-05-05T22:56:02.339Z,97454.88
2023-05-05T22:58:28.930Z,97452.09
2023-05-05T23:00:55.536Z,97448.38
2023-05-05T23:03:22.138Z,97449.91
2023-05-05T23:05:48.755Z,97443.97
2023-05-05T23:08:15.334Z,97448.97
2023-05-05T23:10:41.934Z,97443.88
2023-05-05T23:13:08.547Z,97444.78
2023-05-05T23:15:35.178Z,97445.03
2023-05-05T23:18:01.758Z,97442.38
2023-05-05T23:20:28.352Z,97434.06
2023-05-05T23:22:55.120Z,97435.88
2023-05-05T23:25:21.691Z,97427.34
2023-05-05T23:27:48.282Z,97427.22
2023-05-05T23:30:14.849Z,97419.38
2023-05-05T23:32:41.474Z,97414.84
2023-05-05T23:35:08.356Z,97413.00
2023-05-05T23:37:35.094Z,97406.97
2023-05-05T23:40:01.688Z,97408.47
2023-05-05T23:42:28.268Z,97402.47
2023-05-05T23:44:55.303Z,97404.31
2023-05-05T23:47:21.919Z,97409.28
2023-05-05T23:49:48.499Z,97408.94
2023-05-05T23:52:15.096Z,97395.16
2023-05-05T23:54:41.865Z,97398.06
2023-05-05T23:57:11.435Z,97399.50
2023-05-05T23:59:39.381Z,97399.63
